Latest Weather Observations for Kurnell

IDN60901

Issued at 6:21 am EST Friday 26 April 2019 (issued every 10 minutes, with the page automatically refreshed every 10 minutes)

About weather observations | Map of Sydney area stations | Latest observations for Sydney area | Other Formats
Station Details ID: 066043 Name: KURNELL AWS Lat: -34.00 Lon: 151.21 Height: 4.0 m
Data from the previous 72 hours. | See also: Recent months at Kurnell
Date/Time
EST
Temp
°C
App
Temp
°C
Dew
Point
°C
Rel
Hum
%
Delta-T
°C
Wind Press
QNH
hPa
Press
MSL
hPa
Rain since
9am
mm
Dir  Spd
km/h
Gust
km/h
Spd
kts
Gust
kts
26/06:00am - - - - - WNW 19 22 10 12 - - -
26/05:30am - - - - - NW 17 20 9 11 - - -
26/05:00am - - - - - NNW 17 19 9 10 - - -
26/04:30am - - - - - NW 19 20 10 11 - - -
26/04:00am - - - - - NW 17 19 9 10 - - -
26/03:30am - - - - - NW 13 15 7 8 - - -
26/03:00am - - - - - NW 13 15 7 8 - - -
26/02:30am - - - - - NW 13 15 7 8 - - -
26/02:00am - - - - - N 11 15 6 8 - - -
26/01:30am - - - - - N 11 15 6 8 - - -
26/01:00am - - - - - N 11 15 6 8 - - -
26/12:30am - - - - - N 9 11 5 6 - - -
26/12:00am - - - - - NNW 6 7 3 4 - - -
 
Date/Time
EST
Temp
°C
App
Temp
°C
Dew
Point
°C
Rel
Hum
%
Delta-T
°C
Wind Press
QNH
hPa
Press
MSL
hPa
Rain since
9am
mm
Dir  Spd
km/h
Gust
km/h
Spd
kts
Gust
kts
25/11:30pm - - - - - CALM 0 4 0 2 - - -
25/11:00pm - - - - - SW 7 7 4 4 - - -
25/10:30pm - - - - - SW 6 7 3 4 - - -
25/10:00pm - - - - - CALM 0 0 0 0 - - -
25/09:30pm - - - - - CALM 0 6 0 3 - - -
25/09:00pm - - - - - CALM 0 0 0 0 - - -
25/08:30pm - - - - - CALM 0 0 0 0 - - -
25/08:00pm - - - - - ESE 4 9 2 5 - - -
25/07:30pm - - - - - CALM 0 0 0 0 - - -
25/07:00pm - - - - - NE 9 9 5 5 - - -
25/06:30pm - - - - - ENE 7 9 4 5 - - -
25/06:00pm - - - - - ESE 9 11 5 6 - - -
25/05:30pm - - - - - E 9 11 5 6 - - -
25/05:00pm - - - - - ESE 9 11 5 6 - - -
25/04:30pm - - - - - ESE 13 17 7 9 - - -
25/04:00pm - - - - - SE 13 17 7 9 - - -
25/03:30pm - - - - - SE 15 19 8 10 - - -
25/03:00pm - - - - - SSE 17 22 9 12 - - -
25/02:30pm - - - - - SSE 17 24 9 13 - - -
25/02:00pm - - - - - SE 15 20 8 11 - - -
25/01:30pm - - - - - SSE 17 20 9 11 - - -
25/01:00pm - - - - - SSE 13 19 7 10 - - -
25/12:30pm - - - - - SSE 11 15 6 8 - - -
25/12:00pm - - - - - S 13 17 7 9 - - -
25/11:30am - - - - - SSE 17 19 9 10 - - -
25/11:00am - - - - - S 13 17 7 9 - - -
25/10:30am - - - - - WNW 9 11 5 6 - - -
25/10:00am - - - - - NW 17 19 9 10 - - -
25/09:30am - - - - - NW 19 20 10 11 - - -
25/09:00am - - - - - NW 17 19 9 10 - - -
25/08:30am - - - - - NW 19 22 10 12 - - -
25/08:00am - - - - - NW 17 20 9 11 - - -
25/07:30am - - - - - NW 17 19 9 10 - - -
25/07:00am - - - - - NW 22 28 12 15 - - -
25/06:30am - - - - - NW 26 28 14 15 - - -
25/06:00am - - - - - NW 22 26 12 14 - - -
25/05:30am - - - - - NW 20 26 11 14 - - -
25/05:00am - - - - - NW 17 19 9 10 - - -
25/04:30am - - - - - NW 17 17 9 9 - - -
25/04:00am - - - - - NW 13 15 7 8 - - -
25/03:30am - - - - - NW 15 17 8 9 - - -
25/03:00am - - - - - NW 15 17 8 9 - - -
25/02:30am - - - - - NNW 11 13 6 7 - - -
25/02:00am - - - - - N 11 13 6 7 - - -
25/01:30am - - - - - NNW 7 9 4 5 - - -
25/01:00am - - - - - NW 9 11 5 6 - - -
25/12:30am - - - - - NW 13 15 7 8 - - -
25/12:00am - - - - - NNW 13 15 7 8 - - -
 
Date/Time
EST
Temp
°C
App
Temp
°C
Dew
Point
°C
Rel
Hum
%
Delta-T
°C
Wind Press
QNH
hPa
Press
MSL
hPa
Rain since
9am
mm
Dir  Spd
km/h
Gust
km/h
Spd
kts
Gust
kts
24/11:30pm - - - - - NW 15 19 8 10 - - -
24/11:00pm - - - - - NNW 15 19 8 10 - - -
24/10:30pm - - - - - NNW 13 17 7 9 - - -
24/10:00pm - - - - - N 15 19 8 10 - - -
24/09:30pm - - - - - N 17 19 9 10 - - -
24/09:00pm - - - - - N 17 22 9 12 - - -
24/08:30pm - - - - - N 15 20 8 11 - - -
24/08:00pm - - - - - NNE 19 24 10 13 - - -
24/07:30pm - - - - - NNE 20 28 11 15 - - -
24/07:00pm - - - - - NE 20 24 11 13 - - -
24/06:30pm - - - - - NE 20 26 11 14 - - -
24/06:00pm - - - - - NE 22 28 12 15 - - -
24/05:30pm - - - - - NE 26 30 14 16 - - -
24/05:00pm - - - - - NE 28 32 15 17 - - -
24/04:30pm - - - - - NE 30 35 16 19 - - -
24/04:00pm - - - - - NE 28 33 15 18 - - -
24/03:30pm - - - - - NE 26 32 14 17 - - -
24/03:00pm - - - - - NE 26 30 14 16 - - -
24/02:30pm - - - - - ENE 26 30 14 16 - - -
24/02:00pm - - - - - NE 24 28 13 15 - - -
24/01:30pm - - - - - NE 20 26 11 14 - - -
24/01:00pm - - - - - NE 17 22 9 12 - - -
24/12:30pm - - - - - CALM 0 11 0 6 - - -
24/12:00pm - - - - - ESE 7 11 4 6 - - -
24/11:30am - - - - - NW 9 13 5 7 - - -
24/11:00am - - - - - NW 13 17 7 9 - - -
24/10:30am - - - - - WNW 11 13 6 7 - - -
24/10:00am - - - - - WNW 7 11 4 6 - - -
24/09:30am - - - - - WNW 7 9 4 5 - - -
24/09:00am - - - - - WNW 7 9 4 5 - - -
24/08:30am - - - - - WNW 7 9 4 5 - - -
24/08:00am - - - - - NNW 7 7 4 4 - - -
24/07:30am - - - - - WNW 9 11 5 6 - - -
24/07:00am - - - - - W 9 13 5 7 - - -
24/06:30am - - - - - NW 9 11 5 6 - - -
24/06:00am - - - - - N 11 13 6 7 - - -
24/05:30am - - - - - NNW 9 13 5 7 - - -
24/05:00am - - - - - CALM 0 0 0 0 - - -
24/04:30am - - - - - W 6 7 3 4 - - -
24/04:00am - - - - - N 7 9 4 5 - - -
24/03:30am - - - - - NE 6 7 3 4 - - -
24/03:00am - - - - - ENE 9 11 5 6 - - -
24/02:30am - - - - - NE 7 9 4 5 - - -
24/02:00am - - - - - NE 15 17 8 9 - - -
24/01:30am - - - - - NE 11 15 6 8 - - -
24/01:00am - - - - - NE 15 17 8 9 - - -
24/12:30am - - - - - NE 15 19 8 10 - - -
24/12:00am - - - - - NE 19 24 10 13 - - -
 
Date/Time
EST
Temp
°C
App
Temp
°C
Dew
Point
°C
Rel
Hum
%
Delta-T
°C
Wind Press
QNH
hPa
Press
MSL
hPa
Rain since
9am
mm
Dir  Spd
km/h
Gust
km/h
Spd
kts
Gust
kts
23/11:30pm - - - - - NE 9 11 5 6 - - -
23/11:00pm - - - - - CALM 0 2 0 1 - - -
23/10:30pm - - - - - ENE 2 7 1 4 - - -
23/10:00pm - - - - - ENE 9 11 5 6 - - -
23/09:30pm - - - - - NE 15 20 8 11 - - -
23/09:00pm - - - - - NE 19 24 10 13 - - -
23/08:30pm - - - - - ENE 15 24 8 13 - - -
23/08:00pm - - - - - ESE 13 13 7 7 - - -
23/07:30pm - - - - - SE 11 11 6 6 - - -
23/07:00pm - - - - - SE 11 13 6 7 - - -
23/06:30pm - - - - - SE 9 13 5 7 - - -
23/06:00pm - - - - - SE 13 17 7 9 - - -
23/05:30pm - - - - - SE 15 19 8 10 - - -
23/05:00pm - - - - - SSE 17 22 9 12 - - -
23/04:30pm - - - - - SSE 17 24 9 13 - - -
23/04:00pm - - - - - SSE 17 24 9 13 - - -
23/03:30pm - - - - - SSE 19 24 10 13 - - -
23/03:00pm - - - - - SSE 17 22 9 12 - - -
23/02:30pm - - - - - SSE 17 22 9 12 - - -
23/02:00pm - - - - - SSE 17 24 9 13 - - -
23/01:30pm - - - - - SSE 22 28 12 15 - - -
23/01:00pm - - - - - SSE 20 26 11 14 - - -
23/12:30pm - - - - - S 24 30 13 16 - - -
23/12:00pm - - - - - S 22 28 12 15 - - -
23/11:30am - - - - - S 22 28 12 15 - - -
23/11:00am - - - - - S 22 28 12 15 - - -
23/10:30am - - - - - S 20 26 11 14 - - -
23/10:00am - - - - - SSW 24 28 13 15 - - -
23/09:30am - - - - - SSW 19 26 10 14 - - -
23/09:00am - - - - - SSW 20 28 11 15 - - -
23/08:30am - - - - - SSW 15 22 8 12 - - -
23/08:00am - - - - - SSW 17 22 9 12 - - -
23/07:30am - - - - - S 15 20 8 11 - - -
23/07:00am - - - - - SSW 19 28 10 15 - - -
23/06:30am - - - - - SSW 20 28 11 15 - - -

Latest Capital City Observations: Canberra | Sydney | Melbourne | Brisbane | Adelaide | Perth | Hobart | Darwin

Other formats

Comma delimited format used in spreadsheet applications
http://www.bom.gov.au/fwo/IDN60901/IDN60901.95756.axf

JavaScript Object Notation format (JSON) in row-major order
http://www.bom.gov.au/fwo/IDN60901/IDN60901.95756.json

Data quality

Most of these data are generated automatically and are frequently updated. Quality checks on data are not normally performed. It is possible for incorrect values to appear. Refer to information at About Latest Weather Observations and please check the disclaimer before using these data.